Terminal Aerodrome Forecast
Issued by NWS Cleveland, OH

Home | Current Version | Previous Version | Graphics & Text | Print | Product List | Glossary On
Versions: 1 2 3 4 5 6 7 8 9 10 11 12 13 14 15 16 17 18 19 20 21
000
FTUS41 KCLE 292327
TAFCAK
TAF
KCAK 292327Z 3000/3024 20008KT P6SM SCT035 BKN150
     FM300800 16007KT 6SM -SHRA BR OVC025
      TEMPO 3008/3012 5SM -RA BR OVC020
     FM301400 17008KT P6SM VCSH OVC015
     FM302000 21010KT P6SM BKN025=

USA.gov is the U.S. government's official web portal to all federal, state and local government web resources and services.